sensor_id;sensor_type;location;lat;lon;timestamp;temperature;humidity
20929;DHT22;21895;47.072;15.132;2023-03-14T00:01:35;13.30;90.10
20929;DHT22;21895;47.072;15.132;2023-03-14T00:04:04;13.30;90.20
20929;DHT22;21895;47.072;15.132;2023-03-14T00:06:31;13.40;90.30
20929;DHT22;21895;47.072;15.132;2023-03-14T00:08:57;13.40;90.20
20929;DHT22;21895;47.072;15.132;2023-03-14T00:11:24;13.40;90.20
20929;DHT22;21895;47.072;15.132;2023-03-14T00:13:51;13.50;90.30
20929;DHT22;21895;47.072;15.132;2023-03-14T00:16:19;13.50;90.10
20929;DHT22;21895;47.072;15.132;2023-03-14T00:18:46;13.60;90.10
20929;DHT22;21895;47.072;15.132;2023-03-14T00:21:13;13.60;90.20
20929;DHT22;21895;47.072;15.132;2023-03-14T00:23:42;13.60;90.20
20929;DHT22;21895;47.072;15.132;2023-03-14T00:26:11;13.70;90.10
20929;DHT22;21895;47.072;15.132;2023-03-14T00:28:41;13.70;90.00
20929;DHT22;21895;47.072;15.132;2023-03-14T00:31:10;13.80;90.10
20929;DHT22;21895;47.072;15.132;2023-03-14T00:33:39;13.70;90.00
20929;DHT22;21895;47.072;15.132;2023-03-14T00:36:10;13.80;90.30
20929;DHT22;21895;47.072;15.132;2023-03-14T00:38:40;13.70;89.90
20929;DHT22;21895;47.072;15.132;2023-03-14T00:41:09;13.80;89.80
20929;DHT22;21895;47.072;15.132;2023-03-14T00:43:38;13.80;89.70
20929;DHT22;21895;47.072;15.132;2023-03-14T00:46:05;13.80;89.70
20929;DHT22;21895;47.072;15.132;2023-03-14T00:48:33;13.80;89.70
20929;DHT22;21895;47.072;15.132;2023-03-14T00:51:00;13.70;89.90
20929;DHT22;21895;47.072;15.132;2023-03-14T00:53:27;13.60;90.00
20929;DHT22;21895;47.072;15.132;2023-03-14T00:55:53;13.60;90.00
20929;DHT22;21895;47.072;15.132;2023-03-14T00:58:20;13.70;89.60
20929;DHT22;21895;47.072;15.132;2023-03-14T01:00:47;13.80;88.80
20929;DHT22;21895;47.072;15.132;2023-03-14T01:03:14;13.80;89.20
20929;DHT22;21895;47.072;15.132;2023-03-14T01:05:41;13.60;89.70
20929;DHT22;21895;47.072;15.132;2023-03-14T01:08:08;13.40;90.00
20929;DHT22;21895;47.072;15.132;2023-03-14T01:10:37;13.50;90.00
20929;DHT22;21895;47.072;15.132;2023-03-14T01:13:05;13.30;90.40
20929;DHT22;21895;47.072;15.132;2023-03-14T01:15:34;13.20;90.30
20929;DHT22;21895;47.072;15.132;2023-03-14T01:18:02;13.20;90.40
20929;DHT22;21895;47.072;15.132;2023-03-14T01:20:28;13.20;90.50
20929;DHT22;21895;47.072;15.132;2023-03-14T01:22:55;13.00;90.70
20929;DHT22;21895;47.072;15.132;2023-03-14T01:25:21;12.90;90.80
20929;DHT22;21895;47.072;15.132;2023-03-14T01:27:48;12.80;90.90
20929;DHT22;21895;47.072;15.132;2023-03-14T01:30:14;12.90;90.70
20929;DHT22;21895;47.072;15.132;2023-03-14T01:32:41;13.00;90.70
20929;DHT22;21895;47.072;15.132;2023-03-14T01:35:08;13.00;90.80
20929;DHT22;21895;47.072;15.132;2023-03-14T01:37:34;13.00;90.40
20929;DHT22;21895;47.072;15.132;2023-03-14T01:40:01;12.60;90.70
20929;DHT22;21895;47.072;15.132;2023-03-14T01:42:29;12.20;91.10
20929;DHT22;21895;47.072;15.132;2023-03-14T01:44:58;12.00;91.70
20929;DHT22;21895;47.072;15.132;2023-03-14T01:47:27;11.60;91.70
20929;DHT22;21895;47.072;15.132;2023-03-14T01:50:01;11.00;92.50
20929;DHT22;21895;47.072;15.132;2023-03-14T01:52:36;10.80;92.90
20929;DHT22;21895;47.072;15.132;2023-03-14T01:55:23;10.50;93.40
20929;DHT22;21895;47.072;15.132;2023-03-14T01:57:59;10.40;93.60
20929;DHT22;21895;47.072;15.132;2023-03-14T02:00:29;10.00;94.10
20929;DHT22;21895;47.072;15.132;2023-03-14T02:03:00;9.80;94.50
20929;DHT22;21895;47.072;15.132;2023-03-14T02:05:36;9.70;94.80
20929;DHT22;21895;47.072;15.132;2023-03-14T02:08:11;9.90;95.10
20929;DHT22;21895;47.072;15.132;2023-03-14T02:10:44;10.00;94.80
20929;DHT22;21895;47.072;15.132;2023-03-14T02:13:14;9.90;95.20
20929;DHT22;21895;47.072;15.132;2023-03-14T02:15:43;9.80;95.30
20929;DHT22;21895;47.072;15.132;2023-03-14T02:18:10;9.70;95.50
20929;DHT22;21895;47.072;15.132;2023-03-14T02:21:12;9.70;95.80
20929;DHT22;21895;47.072;15.132;2023-03-14T02:29:48;9.40;96.40
20929;DHT22;21895;47.072;15.132;2023-03-14T02:32:20;9.30;96.70
20929;DHT22;21895;47.072;15.132;2023-03-14T02:34:52;9.20;96.80
20929;DHT22;21895;47.072;15.132;2023-03-14T02:37:24;9.40;96.80
20929;DHT22;21895;47.072;15.132;2023-03-14T02:40:03;9.50;96.80
20929;DHT22;21895;47.072;15.132;2023-03-14T02:42:30;9.80;96.70
20929;DHT22;21895;47.072;15.132;2023-03-14T02:45:28;9.70;96.60
20929;DHT22;21895;47.072;15.132;2023-03-14T02:48:11;9.80;96.70
20929;DHT22;21895;47.072;15.132;2023-03-14T02:50:54;10.00;96.20
20929;DHT22;21895;47.072;15.132;2023-03-14T02:53:31;10.20;95.80
20929;DHT22;21895;47.072;15.132;2023-03-14T02:56:00;10.40;95.80
20929;DHT22;21895;47.072;15.132;2023-03-14T02:58:28;10.50;95.50
20929;DHT22;21895;47.072;15.132;2023-03-14T03:00:55;10.70;95.10
20929;DHT22;21895;47.072;15.132;2023-03-14T03:03:21;10.80;95.20
20929;DHT22;21895;47.072;15.132;2023-03-14T03:05:53;10.60;95.40
20929;DHT22;21895;47.072;15.132;2023-03-14T03:08:23;10.60;95.60
20929;DHT22;21895;47.072;15.132;2023-03-14T03:10:52;10.90;95.20
20929;DHT22;21895;47.072;15.132;2023-03-14T03:13:19;10.90;95.20
20929;DHT22;21895;47.072;15.132;2023-03-14T03:15:46;10.70;95.40
20929;DHT22;21895;47.072;15.132;2023-03-14T03:18:12;10.60;95.60
20929;DHT22;21895;47.072;15.132;2023-03-14T03:20:39;10.40;96.00
20929;DHT22;21895;47.072;15.132;2023-03-14T03:23:06;10.30;96.40
20929;DHT22;21895;47.072;15.132;2023-03-14T03:25:32;10.50;96.30
20929;DHT22;21895;47.072;15.132;2023-03-14T03:27:59;10.40;96.10
20929;DHT22;21895;47.072;15.132;2023-03-14T03:30:25;10.50;96.30
20929;DHT22;21895;47.072;15.132;2023-03-14T03:32:52;10.70;96.10
20929;DHT22;21895;47.072;15.132;2023-03-14T03:35:18;10.70;95.90
20929;DHT22;21895;47.072;15.132;2023-03-14T03:37:45;10.40;96.10
20929;DHT22;21895;47.072;15.132;2023-03-14T03:40:12;10.40;96.60
20929;DHT22;21895;47.072;15.132;2023-03-14T03:42:38;10.50;96.40
20929;DHT22;21895;47.072;15.132;2023-03-14T03:45:05;10.20;96.70
20929;DHT22;21895;47.072;15.132;2023-03-14T03:47:32;10.10;97.10
20929;DHT22;21895;47.072;15.132;2023-03-14T03:49:59;10.30;96.80
20929;DHT22;21895;47.072;15.132;2023-03-14T03:52:25;10.20;97.00
20929;DHT22;21895;47.072;15.132;2023-03-14T03:54:52;10.00;97.30
20929;DHT22;21895;47.072;15.132;2023-03-14T03:57:18;9.90;97.40
20929;DHT22;21895;47.072;15.132;2023-03-14T03:59:45;9.80;97.70
20929;DHT22;21895;47.072;15.132;2023-03-14T04:02:12;9.60;98.00
20929;DHT22;21895;47.072;15.132;2023-03-14T04:04:38;9.60;98.10
20929;DHT22;21895;47.072;15.132;2023-03-14T04:07:05;9.70;98.00
20929;DHT22;21895;47.072;15.132;2023-03-14T04:09:32;9.70;98.30
20929;DHT22;21895;47.072;15.132;2023-03-14T04:11:58;9.70;98.30
20929;DHT22;21895;47.072;15.132;2023-03-14T04:14:25;9.70;98.60
20929;DHT22;21895;47.072;15.132;2023-03-14T04:16:51;10.00;98.30
20929;DHT22;21895;47.072;15.132;2023-03-14T04:19:18;10.00;98.40
20929;DHT22;21895;47.072;15.132;2023-03-14T04:21:44;9.90;98.30
20929;DHT22;21895;47.072;15.132;2023-03-14T04:24:12;9.90;98.60
20929;DHT22;21895;47.072;15.132;2023-03-14T04:26:39;9.90;98.80
20929;DHT22;21895;47.072;15.132;2023-03-14T04:29:05;9.90;99.40
20929;DHT22;21895;47.072;15.132;2023-03-14T04:31:32;9.90;99.30
20929;DHT22;21895;47.072;15.132;2023-03-14T04:33:59;9.90;99.50
20929;DHT22;21895;47.072;15.132;2023-03-14T04:36:25;9.80;99.80
20929;DHT22;21895;47.072;15.132;2023-03-14T04:38:52;9.80;99.90
20929;DHT22;21895;47.072;15.132;2023-03-14T04:41:18;9.80;99.90
20929;DHT22;21895;47.072;15.132;2023-03-14T04:43:45;9.90;99.90
20929;DHT22;21895;47.072;15.132;2023-03-14T04:46:11;10.10;99.70
20929;DHT22;21895;47.072;15.132;2023-03-14T04:48:38;10.20;99.10
20929;DHT22;21895;47.072;15.132;2023-03-14T04:51:05;10.40;99.80
20929;DHT22;21895;47.072;15.132;2023-03-14T04:53:31;10.60;99.10
20929;DHT22;21895;47.072;15.132;2023-03-14T04:55:58;10.70;98.90
20929;DHT22;21895;47.072;15.132;2023-03-14T04:58:25;10.80;98.90
20929;DHT22;21895;47.072;15.132;2023-03-14T05:00:51;10.80;98.90
20929;DHT22;21895;47.072;15.132;2023-03-14T05:03:18;11.10;98.60
20929;DHT22;21895;47.072;15.132;2023-03-14T05:05:46;11.10;98.40
20929;DHT22;21895;47.072;15.132;2023-03-14T05:08:12;11.00;98.70
20929;DHT22;21895;47.072;15.132;2023-03-14T05:10:39;10.80;99.10
20929;DHT22;21895;47.072;15.132;2023-03-14T05:13:05;10.70;99.40
20929;DHT22;21895;47.072;15.132;2023-03-14T05:15:32;10.80;99.50
20929;DHT22;21895;47.072;15.132;2023-03-14T05:17:59;10.80;99.60
20929;DHT22;21895;47.072;15.132;2023-03-14T05:20:25;10.70;99.90
20929;DHT22;21895;47.072;15.132;2023-03-14T05:22:52;10.70;99.70
20929;DHT22;21895;47.072;15.132;2023-03-14T05:25:18;10.80;99.70
20929;DHT22;21895;47.072;15.132;2023-03-14T05:27:45;11.20;99.40
20929;DHT22;21895;47.072;15.132;2023-03-14T05:30:12;11.40;98.90
20929;DHT22;21895;47.072;15.132;2023-03-14T05:32:38;11.40;98.70
20929;DHT22;21895;47.072;15.132;2023-03-14T05:35:05;11.40;98.80
20929;DHT22;21895;47.072;15.132;2023-03-14T05:37:32;11.40;99.00
20929;DHT22;21895;47.072;15.132;2023-03-14T05:39:58;11.30;99.50
20929;DHT22;21895;47.072;15.132;2023-03-14T05:42:25;11.50;98.80
20929;DHT22;21895;47.072;15.132;2023-03-14T05:44:51;11.50;98.90
20929;DHT22;21895;47.072;15.132;2023-03-14T05:47:18;11.70;98.70
20929;DHT22;21895;47.072;15.132;2023-03-14T05:49:44;11.80;98.70
20929;DHT22;21895;47.072;15.132;2023-03-14T05:52:11;12.00;98.40
20929;DHT22;21895;47.072;15.132;2023-03-14T05:54:37;12.00;98.50
20929;DHT22;21895;47.072;15.132;2023-03-14T05:57:04;12.20;98.60
20929;DHT22;21895;47.072;15.132;2023-03-14T05:59:30;12.20;98.20
20929;DHT22;21895;47.072;15.132;2023-03-14T06:01:57;12.00;98.80
20929;DHT22;21895;47.072;15.132;2023-03-14T06:04:24;12.00;98.60
20929;DHT22;21895;47.072;15.132;2023-03-14T06:06:51;12.10;98.30
20929;DHT22;21895;47.072;15.132;2023-03-14T06:09:17;12.40;97.70
20929;DHT22;21895;47.072;15.132;2023-03-14T06:11:45;12.50;97.40
20929;DHT22;21895;47.072;15.132;2023-03-14T06:14:12;12.30;97.60
20929;DHT22;21895;47.072;15.132;2023-03-14T06:16:38;12.20;97.80
20929;DHT22;21895;47.072;15.132;2023-03-14T06:19:05;12.30;97.80
20929;DHT22;21895;47.072;15.132;2023-03-14T06:21:32;12.20;97.90
20929;DHT22;21895;47.072;15.132;2023-03-14T06:23:58;12.10;97.80
20929;DHT22;21895;47.072;15.132;2023-03-14T06:26:25;12.00;98.00
20929;DHT22;21895;47.072;15.132;2023-03-14T06:28:51;12.20;98.20
20929;DHT22;21895;47.072;15.132;2023-03-14T06:31:19;12.40;98.20
20929;DHT22;21895;47.072;15.132;2023-03-14T06:33:46;12.70;97.90
20929;DHT22;21895;47.072;15.132;2023-03-14T06:36:12;12.90;97.60
20929;DHT22;21895;47.072;15.132;2023-03-14T06:38:39;13.10;97.40
20929;DHT22;21895;47.072;15.132;2023-03-14T06:41:06;13.40;97.30
20929;DHT22;21895;47.072;15.132;2023-03-14T06:43:34;13.60;96.80
20929;DHT22;21895;47.072;15.132;2023-03-14T06:46:00;13.90;96.20
20929;DHT22;21895;47.072;15.132;2023-03-14T06:48:27;13.80;95.90
20929;DHT22;21895;47.072;15.132;2023-03-14T06:50:53;13.70;96.30
20929;DHT22;21895;47.072;15.132;2023-03-14T06:53:20;13.70;96.30
20929;DHT22;21895;47.072;15.132;2023-03-14T06:55:47;13.70;95.90
20929;DHT22;21895;47.072;15.132;2023-03-14T06:58:13;13.90;95.90
20929;DHT22;21895;47.072;15.132;2023-03-14T07:00:40;14.00;95.90
20929;DHT22;21895;47.072;15.132;2023-03-14T07:03:06;14.00;96.00
20929;DHT22;21895;47.072;15.132;2023-03-14T07:05:33;14.10;96.00
20929;DHT22;21895;47.072;15.132;2023-03-14T07:07:59;14.30;96.10
20929;DHT22;21895;47.072;15.132;2023-03-14T07:10:26;14.40;95.90
20929;DHT22;21895;47.072;15.132;2023-03-14T07:12:52;14.50;95.90
20929;DHT22;21895;47.072;15.132;2023-03-14T07:15:19;14.50;95.60
20929;DHT22;21895;47.072;15.132;2023-03-14T07:17:46;14.50;95.80
20929;DHT22;21895;47.072;15.132;2023-03-14T07:20:13;14.50;96.00
20929;DHT22;21895;47.072;15.132;2023-03-14T07:22:40;14.50;96.10
20929;DHT22;21895;47.072;15.132;2023-03-14T07:25:07;14.60;95.80
20929;DHT22;21895;47.072;15.132;2023-03-14T07:27:38;14.80;95.70
20929;DHT22;21895;47.072;15.132;2023-03-14T07:30:05;14.80;95.70
20929;DHT22;21895;47.072;15.132;2023-03-14T07:32:32;15.10;95.60
20929;DHT22;21895;47.072;15.132;2023-03-14T07:34:59;15.10;95.60
20929;DHT22;21895;47.072;15.132;2023-03-14T07:37:25;15.30;95.30
20929;DHT22;21895;47.072;15.132;2023-03-14T07:39:52;15.40;95.00
20929;DHT22;21895;47.072;15.132;2023-03-14T07:42:19;15.50;94.90
20929;DHT22;21895;47.072;15.132;2023-03-14T07:44:45;15.90;94.50
20929;DHT22;21895;47.072;15.132;2023-03-14T07:47:12;16.30;94.00
20929;DHT22;21895;47.072;15.132;2023-03-14T07:49:38;16.30;92.20
20929;DHT22;21895;47.072;15.132;2023-03-14T07:52:05;16.50;92.30
20929;DHT22;21895;47.072;15.132;2023-03-14T07:54:31;16.70;91.90
20929;DHT22;21895;47.072;15.132;2023-03-14T07:56:57;17.00;91.20
20929;DHT22;21895;47.072;15.132;2023-03-14T07:59:27;17.10;92.20
20929;DHT22;21895;47.072;15.132;2023-03-14T08:01:54;17.20;91.60
20929;DHT22;21895;47.072;15.132;2023-03-14T08:04:20;17.20;91.60
20929;DHT22;21895;47.072;15.132;2023-03-14T08:06:47;17.20;91.60
20929;DHT22;21895;47.072;15.132;2023-03-14T08:09:13;17.20;91.80
20929;DHT22;21895;47.072;15.132;2023-03-14T08:11:40;17.10;91.60
20929;DHT22;21895;47.072;15.132;2023-03-14T08:14:06;16.90;91.40
20929;DHT22;21895;47.072;15.132;2023-03-14T08:16:33;16.90;91.50
20929;DHT22;21895;47.072;15.132;2023-03-14T08:18:59;16.90;91.40
20929;DHT22;21895;47.072;15.132;2023-03-14T08:21:27;16.80;92.00
20929;DHT22;21895;47.072;15.132;2023-03-14T08:23:55;16.80;92.20
20929;DHT22;21895;47.072;15.132;2023-03-14T08:26:22;16.80;92.20
20929;DHT22;21895;47.072;15.132;2023-03-14T08:28:48;16.90;92.10
20929;DHT22;21895;47.072;15.132;2023-03-14T08:31:15;16.90;92.50
20929;DHT22;21895;47.072;15.132;2023-03-14T08:33:42;16.70;93.10
20929;DHT22;21895;47.072;15.132;2023-03-14T08:36:09;16.40;93.60
20929;DHT22;21895;47.072;15.132;2023-03-14T08:38:36;16.10;94.00
20929;DHT22;21895;47.072;15.132;2023-03-14T08:41:03;15.80;94.50
20929;DHT22;21895;47.072;15.132;2023-03-14T08:43:30;15.70;94.80
20929;DHT22;21895;47.072;15.132;2023-03-14T08:45:58;15.50;95.10
20929;DHT22;21895;47.072;15.132;2023-03-14T08:48:26;15.50;95.30
20929;DHT22;21895;47.072;15.132;2023-03-14T08:50:53;15.50;95.40
20929;DHT22;21895;47.072;15.132;2023-03-14T08:53:19;15.40;95.50
20929;DHT22;21895;47.072;15.132;2023-03-14T08:55:53;15.30;95.60
20929;DHT22;21895;47.072;15.132;2023-03-14T08:58:20;15.30;95.70
20929;DHT22;21895;47.072;15.132;2023-03-14T09:00:48;15.30;95.90
20929;DHT22;21895;47.072;15.132;2023-03-14T09:03:15;15.20;95.80
20929;DHT22;21895;47.072;15.132;2023-03-14T09:05:42;15.20;95.60
20929;DHT22;21895;47.072;15.132;2023-03-14T09:08:08;15.40;95.60
20929;DHT22;21895;47.072;15.132;2023-03-14T09:10:35;15.30;95.70
20929;DHT22;21895;47.072;15.132;2023-03-14T09:13:01;15.20;95.90
20929;DHT22;21895;47.072;15.132;2023-03-14T09:15:28;15.30;95.90
20929;DHT22;21895;47.072;15.132;2023-03-14T09:17:54;15.40;95.60
20929;DHT22;21895;47.072;15.132;2023-03-14T09:20:21;15.40;95.70
20929;DHT22;21895;47.072;15.132;2023-03-14T09:22:47;15.50;95.70
20929;DHT22;21895;47.072;15.132;2023-03-14T09:25:14;15.60;95.50
20929;DHT22;21895;47.072;15.132;2023-03-14T09:27:40;15.60;95.30
20929;DHT22;21895;47.072;15.132;2023-03-14T09:30:08;15.60;95.50
20929;DHT22;21895;47.072;15.132;2023-03-14T09:32:35;15.50;95.50
20929;DHT22;21895;47.072;15.132;2023-03-14T09:35:02;15.40;95.00
20929;DHT22;21895;47.072;15.132;2023-03-14T09:37:28;15.30;95.20
20929;DHT22;21895;47.072;15.132;2023-03-14T09:39:55;15.10;95.70
20929;DHT22;21895;47.072;15.132;2023-03-14T09:42:25;14.90;96.10
20929;DHT22;21895;47.072;15.132;2023-03-14T09:45:19;14.80;96.10
20929;DHT22;21895;47.072;15.132;2023-03-14T09:48:04;14.90;95.90
20929;DHT22;21895;47.072;15.132;2023-03-14T09:50:37;14.90;96.00
20929;DHT22;21895;47.072;15.132;2023-03-14T09:53:12;14.90;95.80
20929;DHT22;21895;47.072;15.132;2023-03-14T09:55:48;15.00;95.10
20929;DHT22;21895;47.072;15.132;2023-03-14T09:58:20;15.10;94.60
20929;DHT22;21895;47.072;15.132;2023-03-14T10:00:50;15.30;94.20
20929;DHT22;21895;47.072;15.132;2023-03-14T10:03:26;15.50;93.20
20929;DHT22;21895;47.072;15.132;2023-03-14T10:05:58;15.70;93.40
20929;DHT22;21895;47.072;15.132;2023-03-14T10:08:25;16.10;92.60
20929;DHT22;21895;47.072;15.132;2023-03-14T10:10:52;16.70;90.00
20929;DHT22;21895;47.072;15.132;2023-03-14T10:13:25;17.20;90.00
20929;DHT22;21895;47.072;15.132;2023-03-14T10:15:55;17.70;84.40
20929;DHT22;21895;47.072;15.132;2023-03-14T10:18:29;17.90;86.00
20929;DHT22;21895;47.072;15.132;2023-03-14T10:21:16;17.80;81.50
20929;DHT22;21895;47.072;15.132;2023-03-14T10:23:47;17.50;81.30
20929;DHT22;21895;47.072;15.132;2023-03-14T10:26:34;17.40;81.60
20929;DHT22;21895;47.072;15.132;2023-03-14T10:29:11;17.10;82.50
20929;DHT22;21895;47.072;15.132;2023-03-14T10:32:02;16.80;83.20
20929;DHT22;21895;47.072;15.132;2023-03-14T10:34:36;16.40;82.80
20929;DHT22;21895;47.072;15.132;2023-03-14T10:37:24;16.00;85.00
20929;DHT22;21895;47.072;15.132;2023-03-14T10:39:54;15.80;85.60
20929;DHT22;21895;47.072;15.132;2023-03-14T10:42:27;15.80;86.80
20929;DHT22;21895;47.072;15.132;2023-03-14T10:45:03;15.60;86.80
20929;DHT22;21895;47.072;15.132;2023-03-14T10:47:34;15.50;87.10
20929;DHT22;21895;47.072;15.132;2023-03-14T10:52:53;15.50;88.10
20929;DHT22;21895;47.072;15.132;2023-03-14T10:55:40;15.00;87.70
20929;DHT22;21895;47.072;15.132;2023-03-14T11:00:01;15.00;88.40
20929;DHT22;21895;47.072;15.132;2023-03-14T11:02:54;15.30;88.90
20929;DHT22;21895;47.072;15.132;2023-03-14T11:06:30;15.30;88.30
20929;DHT22;21895;47.072;15.132;2023-03-14T11:09:51;15.60;87.50
20929;DHT22;21895;47.072;15.132;2023-03-14T11:24:33;15.80;85.80
20929;DHT22;21895;47.072;15.132;2023-03-14T11:27:25;16.40;83.80
20929;DHT22;21895;47.072;15.132;2023-03-14T11:30:52;16.60;84.30
20929;DHT22;21895;47.072;15.132;2023-03-14T11:33:51;16.80;80.90
20929;DHT22;21895;47.072;15.132;2023-03-14T11:36:51;16.40;82.30
20929;DHT22;21895;47.072;15.132;2023-03-14T11:39:22;16.30;82.80
20929;DHT22;21895;47.072;15.132;2023-03-14T11:41:57;16.20;82.60
20929;DHT22;21895;47.072;15.132;2023-03-14T11:44:30;16.30;81.50
20929;DHT22;21895;47.072;15.132;2023-03-14T11:47:05;16.20;81.80
20929;DHT22;21895;47.072;15.132;2023-03-14T11:50:27;16.00;82.50
20929;DHT22;21895;47.072;15.132;2023-03-14T11:53:07;15.80;82.60
20929;DHT22;21895;47.072;15.132;2023-03-14T11:55:42;15.80;82.70
20929;DHT22;21895;47.072;15.132;2023-03-14T11:58:25;15.80;83.50
20929;DHT22;21895;47.072;15.132;2023-03-14T12:00:55;15.90;82.90
20929;DHT22;21895;47.072;15.132;2023-03-14T12:03:35;16.10;82.90
20929;DHT22;21895;47.072;15.132;2023-03-14T12:06:28;16.20;82.80
20929;DHT22;21895;47.072;15.132;2023-03-14T12:09:04;16.20;82.70
20929;DHT22;21895;47.072;15.132;2023-03-14T12:11:50;16.40;82.40
20929;DHT22;21895;47.072;15.132;2023-03-14T12:14:36;16.50;82.00
20929;DHT22;21895;47.072;15.132;2023-03-14T12:17:53;16.60;81.60
20929;DHT22;21895;47.072;15.132;2023-03-14T12:20:25;16.70;80.60
20929;DHT22;21895;47.072;15.132;2023-03-14T12:23:10;16.80;81.10
20929;DHT22;21895;47.072;15.132;2023-03-14T12:25:38;16.90;80.50
20929;DHT22;21895;47.072;15.132;2023-03-14T12:28:22;16.90;80.40
20929;DHT22;21895;47.072;15.132;2023-03-14T12:31:35;16.90;81.20
20929;DHT22;21895;47.072;15.132;2023-03-14T12:34:42;16.80;81.40
20929;DHT22;21895;47.072;15.132;2023-03-14T12:37:28;17.00;81.50
20929;DHT22;21895;47.072;15.132;2023-03-14T12:40:20;16.90;81.00
20929;DHT22;21895;47.072;15.132;2023-03-14T12:43:04;16.70;80.20
20929;DHT22;21895;47.072;15.132;2023-03-14T12:46:08;16.70;81.70
20929;DHT22;21895;47.072;15.132;2023-03-14T12:49:07;17.00;80.60
20929;DHT22;21895;47.072;15.132;2023-03-14T12:51:42;16.90;81.10
20929;DHT22;21895;47.072;15.132;2023-03-14T13:00:42;16.30;82.30
20929;DHT22;21895;47.072;15.132;2023-03-14T13:03:23;16.40;81.30
20929;DHT22;21895;47.072;15.132;2023-03-14T13:05:59;16.20;81.40
20929;DHT22;21895;47.072;15.132;2023-03-14T13:08:43;16.30;81.70
20929;DHT22;21895;47.072;15.132;2023-03-14T13:11:15;16.40;81.80
20929;DHT22;21895;47.072;15.132;2023-03-14T13:13:56;16.30;81.90
20929;DHT22;21895;47.072;15.132;2023-03-14T13:16:25;16.30;82.30
20929;DHT22;21895;47.072;15.132;2023-03-14T13:19:18;16.10;81.40
20929;DHT22;21895;47.072;15.132;2023-03-14T13:21:50;15.90;81.40
20929;DHT22;21895;47.072;15.132;2023-03-14T13:24:25;15.80;82.90
20929;DHT22;21895;47.072;15.132;2023-03-14T13:26:54;15.70;83.00
20929;DHT22;21895;47.072;15.132;2023-03-14T13:32:01;15.50;83.70
20929;DHT22;21895;47.072;15.132;2023-03-14T13:34:38;15.70;84.00
20929;DHT22;21895;47.072;15.132;2023-03-14T13:37:15;15.70;83.60
20929;DHT22;21895;47.072;15.132;2023-03-14T13:39:50;15.70;82.60
20929;DHT22;21895;47.072;15.132;2023-03-14T13:42:28;15.60;83.20
20929;DHT22;21895;47.072;15.132;2023-03-14T13:44:56;15.40;84.60
20929;DHT22;21895;47.072;15.132;2023-03-14T13:47:26;15.50;84.50
20929;DHT22;21895;47.072;15.132;2023-03-14T13:49:53;15.50;84.10
20929;DHT22;21895;47.072;15.132;2023-03-14T13:52:38;15.70;83.80
20929;DHT22;21895;47.072;15.132;2023-03-14T13:55:13;15.70;83.80
20929;DHT22;21895;47.072;15.132;2023-03-14T13:57:46;15.80;83.30
20929;DHT22;21895;47.072;15.132;2023-03-14T14:00:20;15.90;82.90
20929;DHT22;21895;47.072;15.132;2023-03-14T14:02:49;16.10;83.10
20929;DHT22;21895;47.072;15.132;2023-03-14T14:05:17;16.20;83.30
20929;DHT22;21895;47.072;15.132;2023-03-14T14:07:44;16.30;83.90
20929;DHT22;21895;47.072;15.132;2023-03-14T14:10:13;16.50;82.50
20929;DHT22;21895;47.072;15.132;2023-03-14T14:12:45;16.40;82.30
20929;DHT22;21895;47.072;15.132;2023-03-14T14:15:21;16.40;82.60
20929;DHT22;21895;47.072;15.132;2023-03-14T14:17:57;16.40;83.20
20929;DHT22;21895;47.072;15.132;2023-03-14T14:20:31;16.40;83.20
20929;DHT22;21895;47.072;15.132;2023-03-14T14:23:04;16.20;82.00
20929;DHT22;21895;47.072;15.132;2023-03-14T14:25:32;16.10;82.90
20929;DHT22;21895;47.072;15.132;2023-03-14T14:28:13;16.00;83.20
20929;DHT22;21895;47.072;15.132;2023-03-14T14:30:41;15.90;84.20
20929;DHT22;21895;47.072;15.132;2023-03-14T14:33:21;16.00;83.20
20929;DHT22;21895;47.072;15.132;2023-03-14T14:35:57;16.10;83.60
20929;DHT22;21895;47.072;15.132;2023-03-14T14:38:26;16.10;83.90
20929;DHT22;21895;47.072;15.132;2023-03-14T14:41:00;16.10;84.60
20929;DHT22;21895;47.072;15.132;2023-03-14T14:43:30;15.90;83.80
20929;DHT22;21895;47.072;15.132;2023-03-14T14:46:07;15.70;84.10
20929;DHT22;21895;47.072;15.132;2023-03-14T14:48:37;15.60;84.70
20929;DHT22;21895;47.072;15.132;2023-03-14T14:51:06;15.50;85.10
20929;DHT22;21895;47.072;15.132;2023-03-14T14:56:26;15.40;86.30
20929;DHT22;21895;47.072;15.132;2023-03-14T14:58:59;15.50;85.40
20929;DHT22;21895;47.072;15.132;2023-03-14T15:01:38;15.50;86.30
20929;DHT22;21895;47.072;15.132;2023-03-14T15:04:13;15.50;85.90
20929;DHT22;21895;47.072;15.132;2023-03-14T15:06:46;15.50;86.40
20929;DHT22;21895;47.072;15.132;2023-03-14T15:09:14;15.40;86.40
20929;DHT22;21895;47.072;15.132;2023-03-14T15:11:43;15.30;86.50
20929;DHT22;21895;47.072;15.132;2023-03-14T15:14:10;15.10;87.50
20929;DHT22;21895;47.072;15.132;2023-03-14T15:16:36;15.00;87.40
20929;DHT22;21895;47.072;15.132;2023-03-14T15:19:20;14.80;88.20
20929;DHT22;21895;47.072;15.132;2023-03-14T15:21:52;14.80;88.30
20929;DHT22;21895;47.072;15.132;2023-03-14T15:24:19;14.70;88.80
20929;DHT22;21895;47.072;15.132;2023-03-14T15:26:46;14.70;88.90
20929;DHT22;21895;47.072;15.132;2023-03-14T15:29:12;14.70;88.90
20929;DHT22;21895;47.072;15.132;2023-03-14T15:31:39;14.60;89.40
20929;DHT22;21895;47.072;15.132;2023-03-14T15:34:07;14.50;89.70
20929;DHT22;21895;47.072;15.132;2023-03-14T15:36:35;14.40;90.00
20929;DHT22;21895;47.072;15.132;2023-03-14T15:39:04;14.50;90.00
20929;DHT22;21895;47.072;15.132;2023-03-14T15:41:32;14.50;90.40
20929;DHT22;21895;47.072;15.132;2023-03-14T15:43:59;14.40;90.40
20929;DHT22;21895;47.072;15.132;2023-03-14T15:46:25;14.30;90.50
20929;DHT22;21895;47.072;15.132;2023-03-14T15:48:54;14.30;90.50
20929;DHT22;21895;47.072;15.132;2023-03-14T15:51:21;14.20;90.60
20929;DHT22;21895;47.072;15.132;2023-03-14T15:53:47;14.20;90.40
20929;DHT22;21895;47.072;15.132;2023-03-14T15:56:16;14.20;90.60
20929;DHT22;21895;47.072;15.132;2023-03-14T15:58:44;14.20;90.40
20929;DHT22;21895;47.072;15.132;2023-03-14T16:01:14;14.10;90.20
20929;DHT22;21895;47.072;15.132;2023-03-14T16:03:45;14.10;90.30
20929;DHT22;21895;47.072;15.132;2023-03-14T16:06:13;14.10;90.40
20929;DHT22;21895;47.072;15.132;2023-03-14T16:08:40;14.00;90.50
20929;DHT22;21895;47.072;15.132;2023-03-14T16:11:09;13.90;90.60
20929;DHT22;21895;47.072;15.132;2023-03-14T16:13:38;14.00;90.70
20929;DHT22;21895;47.072;15.132;2023-03-14T16:16:06;13.90;90.90
20929;DHT22;21895;47.072;15.132;2023-03-14T16:18:36;13.90;91.10